Time;durP1;ratioP1;P1;durP2;ratioP2;P2;SDS_P1;SDS_P2;PMS_P1;PMS_P2;Temp;Humidity;BMP_temperature;BMP_pressure;BME280_temperature;BME280_humidity;BME280_pressure;Samples;Min_cycle;Max_cycle;Signal;HPM_P1;HPM_P2
2022/03/24 00:00:16;;;;;;;;;;;6.30;99.90;;;;;;5158027;27;19975;-69
2022/03/24 00:02:42;;;;;;;;;;;6.30;99.90;;;;;;5158447;27;20016;-70
2022/03/24 00:05:08;;;;;;;;;;;7.10;99.90;;;;;;5158336;27;19927;-69
2022/03/24 00:07:34;;;;;;;;;;;6.30;99.90;;;;;;5158266;27;19927;-72
2022/03/24 00:10:00;;;;;;;;;;;6.60;99.90;;;;;;5139926;27;19924;-69
2022/03/24 00:12:27;;;;;;;;;;;6.30;99.90;;;;;;5158445;27;19976;-69
2022/03/24 00:14:53;;;;;;;;;;;6.20;99.90;;;;;;5140150;27;19923;-70
2022/03/24 00:17:18;;;;;;;;;;;6.10;99.90;;;;;;5158125;27;20334;-70
2022/03/24 00:19:44;;;;;;;;;;;6.10;99.90;;;;;;5158012;27;19930;-69
2022/03/24 00:22:10;;;;;;;;;;;6.00;99.90;;;;;;5158080;27;19923;-71
2022/03/24 00:24:37;;;;;;;;;;;5.90;99.90;;;;;;5157953;27;19930;-70
2022/03/24 00:27:03;;;;;;;;;;;5.90;99.90;;;;;;5158133;27;19968;-70
2022/03/24 00:29:29;;;;;;;;;;;5.80;99.90;;;;;;5158108;27;20328;-70
2022/03/24 00:31:54;;;;;;;;;;;5.80;99.90;;;;;;5139697;27;19930;-70
2022/03/24 00:34:20;;;;;;;;;;;5.90;99.90;;;;;;5157727;27;19974;-70
2022/03/24 00:36:45;;;;;;;;;;;6.00;99.90;;;;;;5157702;27;19967;-70
2022/03/24 00:39:11;;;;;;;;;;;6.40;99.90;;;;;;5139462;27;19991;-70
2022/03/24 00:41:37;;;;;;;;;;;6.80;99.90;;;;;;5157838;27;19923;-69
2022/03/24 00:44:03;;;;;;;;;;;5.60;99.90;;;;;;5157695;27;20331;-71
2022/03/24 00:46:31;;;;;;;;;;;5.60;99.90;;;;;;5157772;27;19923;-70
2022/03/24 00:48:57;;;;;;;;;;;5.60;99.90;;;;;;5121903;27;19923;-71
2022/03/24 00:51:22;;;;;;;;;;;5.60;99.90;;;;;;5157404;27;19923;-69
2022/03/24 00:53:49;;;;;;;;;;;5.60;99.90;;;;;;5157372;27;20048;-72
2022/03/24 00:56:14;;;;;;;;;;;5.50;99.90;;;;;;5138587;27;19923;-70
2022/03/24 00:58:40;;;;;;;;;;;6.30;99.90;;;;;;5138987;27;19927;-69
2022/03/24 01:01:09;;;;;;;;;;;5.50;99.90;;;;;;5138955;27;20338;-72
2022/03/24 01:03:36;;;;;;;;;;;5.50;99.90;;;;;;5157299;27;19988;-71
2022/03/24 01:06:02;;;;;;;;;;;5.60;99.90;;;;;;5157040;27;20338;-70
2022/03/24 01:08:27;;;;;;;;;;;6.00;99.90;;;;;;5157152;27;19923;-70
2022/03/24 01:10:55;;;;;;;;;;;5.20;99.90;;;;;;5137651;27;20362;-69
2022/03/24 01:13:21;;;;;;;;;;;5.70;99.90;;;;;;5157185;27;19924;-70
2022/03/24 01:15:47;;;;;;;;;;;5.70;99.90;;;;;;5157012;27;20293;-69
2022/03/24 01:18:14;;;;;;;;;;;5.90;99.90;;;;;;5157069;27;19971;-70
2022/03/24 01:20:40;;;;;;;;;;;5.70;99.90;;;;;;5156764;27;19923;-69
2022/03/24 01:23:05;;;;;;;;;;;6.50;99.90;;;;;;5156869;27;20403;-70
2022/03/24 01:25:31;;;;;;;;;;;6.00;99.90;;;;;;5138521;27;19948;-70
2022/03/24 01:27:56;;;;;;;;;;;5.60;99.90;;;;;;5156726;27;20270;-72
2022/03/24 01:30:22;;;;;;;;;;;5.60;99.90;;;;;;5138635;27;19983;-70
2022/03/24 01:32:47;;;;;;;;;;;5.20;99.90;;;;;;5156685;27;19942;-69
2022/03/24 01:35:14;;;;;;;;;;;5.60;99.90;;;;;;5156500;27;19923;-70
2022/03/24 01:37:40;;;;;;;;;;;6.00;99.90;;;;;;5156616;27;20010;-71
2022/03/24 01:40:07;;;;;;;;;;;5.40;99.90;;;;;;5134366;27;19923;-70
2022/03/24 01:42:34;;;;;;;;;;;5.30;99.90;;;;;;5135619;27;20336;-71
2022/03/24 01:45:00;;;;;;;;;;;5.30;99.90;;;;;;5135757;27;20384;-70
2022/03/24 01:47:25;;;;;;;;;;;5.30;99.90;;;;;;5135798;27;19930;-70
2022/03/24 01:49:51;;;;;;;;;;;5.60;99.90;;;;;;5135444;27;20050;-72
2022/03/24 01:52:18;;;;;;;;;;;6.40;99.90;;;;;;5135575;27;19924;-71
2022/03/24 01:54:45;;;;;;;;;;;5.10;99.90;;;;;;5135544;27;19923;-69
2022/03/24 01:57:11;;;;;;;;;;;6.00;99.90;;;;;;5133998;27;19947;-70
2022/03/24 01:59:37;;;;;;;;;;;5.20;99.90;;;;;;5135535;27;20303;-72
2022/03/24 02:02:03;;;;;;;;;;;5.00;99.90;;;;;;5134471;27;20293;-70
2022/03/24 02:04:30;;;;;;;;;;;4.90;99.90;;;;;;5135530;27;20011;-69
2022/03/24 02:06:56;;;;;;;;;;;5.70;99.90;;;;;;5135694;27;20375;-69
2022/03/24 02:09:21;;;;;;;;;;;4.90;99.90;;;;;;5134259;27;20011;-69
2022/03/24 02:11:47;;;;;;;;;;;5.30;99.90;;;;;;5134183;27;20290;-70
2022/03/24 02:14:12;;;;;;;;;;;4.90;99.90;;;;;;5135322;27;19928;-69
2022/03/24 02:16:39;;;;;;;;;;;5.40;99.90;;;;;;5116915;27;19979;-69
2022/03/24 02:19:24;;;;;;;;;;;5.00;99.90;;;;;;5135165;27;19930;-69
2022/03/24 02:21:50;;;;;;;;;;;5.10;99.90;;;;;;5134669;27;19923;-73
2022/03/24 02:24:17;;;;;;;;;;;5.40;99.90;;;;;;5134062;27;19924;-69
2022/03/24 02:26:44;;;;;;;;;;;5.10;99.90;;;;;;5134863;27;19927;-72
2022/03/24 02:29:11;;;;;;;;;;;6.90;99.90;;;;;;5135074;27;19979;-72
2022/03/24 02:31:38;;;;;;;;;;;5.20;99.90;;;;;;5134791;27;19930;-72
2022/03/24 02:36:52;;;;;;;;;;;5.30;99.90;;;;;;5134708;27;19924;-69
2022/03/24 02:39:17;;;;;;;;;;;5.30;99.90;;;;;;5134720;27;19923;-70
2022/03/24 02:41:47;;;;;;;;;;;4.80;99.90;;;;;;5153962;27;19926;-71
2022/03/24 02:44:14;;;;;;;;;;;5.30;99.90;;;;;;5155428;27;20457;-69
2022/03/24 02:46:42;;;;;;;;;;;5.30;99.90;;;;;;5155309;27;20434;-69
2022/03/24 02:49:08;;;;;;;;;;;5.60;99.90;;;;;;5137116;27;20412;-70
2022/03/24 02:51:34;;;;;;;;;;;5.90;99.90;;;;;;5155253;27;19927;-69
2022/03/24 02:53:59;;;;;;;;;;;5.30;99.90;;;;;;5155216;27;19923;-70
2022/03/24 02:56:25;;;;;;;;;;;6.70;99.90;;;;;;5136988;27;19977;-70
2022/03/24 02:58:51;;;;;;;;;;;5.30;99.90;;;;;;5155258;27;19923;-69
2022/03/24 03:01:18;;;;;;;;;;;5.40;99.90;;;;;;5155348;27;19923;-70
2022/03/24 03:03:43;;;;;;;;;;;5.40;99.90;;;;;;5137044;27;19923;-72
2022/03/24 03:06:11;;;;;;;;;;;6.90;99.90;;;;;;5155169;27;20297;-71
2022/03/24 03:08:36;;;;;;;;;;;5.40;99.90;;;;;;5155067;27;19923;-69
2022/03/24 03:11:02;;;;;;;;;;;5.40;99.90;;;;;;5155342;27;19929;-71
2022/03/24 03:13:27;;;;;;;;;;;5.40;99.90;;;;;;5155313;27;19923;-70
2022/03/24 03:15:53;;;;;;;;;;;5.30;99.90;;;;;;5155210;27;19981;-69
2022/03/24 03:18:18;;;;;;;;;;;5.30;99.90;;;;;;5136969;27;19927;-72
2022/03/24 03:20:45;;;;;;;;;;;5.50;99.90;;;;;;5155284;27;19930;-69
2022/03/24 03:23:11;;;;;;;;;;;5.10;99.90;;;;;;5154942;27;19923;-72
2022/03/24 03:25:36;;;;;;;;;;;6.30;99.90;;;;;;5136852;27;19930;-69
2022/03/24 03:28:02;;;;;;;;;;;5.90;99.90;;;;;;5136998;27;20393;-70
2022/03/24 03:30:27;;;;;;;;;;;5.00;99.90;;;;;;5155106;27;19979;-69
2022/03/24 03:32:53;;;;;;;;;;;5.40;99.90;;;;;;5155115;27;20011;-69
2022/03/24 03:35:18;;;;;;;;;;;5.00;99.90;;;;;;5158257;27;19952;-70
2022/03/24 03:37:44;;;;;;;;;;;5.00;99.90;;;;;;5159024;27;19924;-69
2022/03/24 03:40:10;;;;;;;;;;;5.20;99.90;;;;;;5158460;27;19923;-69
2022/03/24 03:42:36;;;;;;;;;;;5.00;99.90;;;;;;5136743;27;19930;-69
2022/03/24 03:45:02;;;;;;;;;;;5.00;99.90;;;;;;5137025;27;19927;-69
2022/03/24 03:47:27;;;;;;;;;;;5.00;99.90;;;;;;5138104;27;20290;-72
2022/03/24 03:49:53;;;;;;;;;;;5.00;99.90;;;;;;5137882;27;19930;-71
2022/03/24 03:52:19;;;;;;;;;;;4.90;99.90;;;;;;5137876;27;20010;-69
2022/03/24 03:54:44;;;;;;;;;;;5.60;99.90;;;;;;5135913;27;19923;-71
2022/03/24 03:57:10;;;;;;;;;;;5.10;99.90;;;;;;5138155;27;19927;-69
2022/03/24 03:59:36;;;;;;;;;;;5.00;99.90;;;;;;5136990;27;20324;-69
2022/03/24 04:02:02;;;;;;;;;;;5.10;99.90;;;;;;5137608;27;19948;-70
2022/03/24 04:04:28;;;;;;;;;;;4.50;99.90;;;;;;5137447;27;19923;-71
2022/03/24 04:06:53;;;;;;;;;;;5.60;99.90;;;;;;5137679;27;19930;-71
2022/03/24 04:09:19;;;;;;;;;;;4.40;99.90;;;;;;5137519;27;19930;-70
2022/03/24 04:11:44;;;;;;;;;;;4.70;99.90;;;;;;5137488;27;20022;-68
2022/03/24 04:14:10;;;;;;;;;;;4.90;99.90;;;;;;5136760;27;20439;-71
2022/03/24 04:16:36;;;;;;;;;;;3.10;99.90;;;;;;5137388;27;20320;-69
2022/03/24 04:19:05;;;;;;;;;;;4.30;99.90;;;;;;5137445;27;19931;-69
2022/03/24 04:21:31;;;;;;;;;;;4.20;99.90;;;;;;5119098;27;19924;-69
2022/03/24 04:23:56;;;;;;;;;;;5.60;99.90;;;;;;5137328;27;19931;-71
2022/03/24 04:26:22;;;;;;;;;;;5.00;99.90;;;;;;5137078;27;20026;-71
2022/03/24 04:28:47;;;;;;;;;;;5.30;99.90;;;;;;5136431;27;19924;-70
2022/03/24 04:31:13;;;;;;;;;;;4.10;99.90;;;;;;5136273;27;20331;-70
2022/03/24 04:33:39;;;;;;;;;;;4.60;99.90;;;;;;5137078;27;19962;-70
2022/03/24 04:36:08;;;;;;;;;;;4.40;99.90;;;;;;5137063;27;19967;-69
2022/03/24 04:38:34;;;;;;;;;;;3.80;99.90;;;;;;5137091;27;20367;-69
2022/03/24 04:41:00;;;;;;;;;;;4.00;99.90;;;;;;5143133;27;19975;-69
2022/03/24 04:43:26;;;;;;;;;;;5.40;99.90;;;;;;5157723;27;20064;-69
2022/03/24 04:45:52;;;;;;;;;;;3.80;99.90;;;;;;5157354;27;20017;-69
2022/03/24 04:48:18;;;;;;;;;;;3.90;99.90;;;;;;5157693;27;19930;-69
2022/03/24 04:50:44;;;;;;;;;;;3.90;99.90;;;;;;5139293;27;19930;-69
2022/03/24 04:53:14;;;;;;;;;;;4.80;99.90;;;;;;5157509;27;20328;-69
2022/03/24 04:55:41;;;;;;;;;;;4.30;99.90;;;;;;5157180;27;20267;-70
2022/03/24 04:58:06;;;;;;;;;;;3.70;99.90;;;;;;5157620;27;19923;-72
2022/03/24 05:00:32;;;;;;;;;;;3.70;99.90;;;;;;5157426;27;19923;-70
2022/03/24 05:02:59;;;;;;;;;;;3.80;99.90;;;;;;5157427;27;19927;-70
2022/03/24 05:05:24;;;;;;;;;;;4.10;99.90;;;;;;5157119;27;20400;-69
2022/03/24 05:07:50;;;;;;;;;;;3.90;99.90;;;;;;5138894;27;19923;-69
2022/03/24 05:10:16;;;;;;;;;;;4.00;99.90;;;;;;5156995;27;19930;-69
2022/03/24 05:12:42;;;;;;;;;;;3.90;99.90;;;;;;5157243;27;19976;-72
2022/03/24 05:15:09;;;;;;;;;;;5.60;99.90;;;;;;5157226;27;19962;-71
2022/03/24 05:17:34;;;;;;;;;;;4.00;99.90;;;;;;5156942;27;20370;-69
2022/03/24 05:20:00;;;;;;;;;;;4.30;99.90;;;;;;5138667;27;19943;-71
2022/03/24 05:22:26;;;;;;;;;;;3.80;99.90;;;;;;5156874;27;19923;-70
2022/03/24 05:24:51;;;;;;;;;;;4.40;99.90;;;;;;5156797;27;19930;-69
2022/03/24 05:27:17;;;;;;;;;;;3.80;99.90;;;;;;5156661;27;19923;-69
2022/03/24 05:29:42;;;;;;;;;;;4.20;99.90;;;;;;5157108;27;19923;-69
2022/03/24 05:32:08;;;;;;;;;;;4.80;99.90;;;;;;5156798;27;19927;-69
2022/03/24 05:34:34;;;;;;;;;;;3.70;99.90;;;;;;5156553;27;19931;-69
2022/03/24 05:37:00;;;;;;;;;;;4.70;99.90;;;;;;5156583;27;19924;-69
2022/03/24 05:39:25;;;;;;;;;;;3.90;99.90;;;;;;5156533;27;20386;-71
2022/03/24 05:41:51;;;;;;;;;;;4.50;99.90;;;;;;5156608;27;20301;-70
2022/03/24 05:44:16;;;;;;;;;;;4.70;99.90;;;;;;5137947;27;19923;-69
2022/03/24 05:46:44;;;;;;;;;;;3.60;99.90;;;;;;5137940;27;19962;-69
2022/03/24 05:49:11;;;;;;;;;;;3.50;99.90;;;;;;5156424;27;19923;-69
2022/03/24 05:51:36;;;;;;;;;;;3.40;99.90;;;;;;5156113;27;19977;-69
2022/03/24 05:54:03;;;;;;;;;;;3.70;99.90;;;;;;5156308;27;19923;-69
2022/03/24 05:56:29;;;;;;;;;;;3.40;99.90;;;;;;5119774;27;19934;-70
2022/03/24 05:58:55;;;;;;;;;;;3.50;99.90;;;;;;5156106;27;20277;-69
2022/03/24 06:01:23;;;;;;;;;;;3.50;99.90;;;;;;5137409;27;20349;-70
2022/03/24 06:03:51;;;;;;;;;;;3.50;99.90;;;;;;5156130;27;19923;-69
2022/03/24 06:06:20;;;;;;;;;;;3.50;99.90;;;;;;5137851;27;19930;-70
2022/03/24 06:08:52;;;;;;;;;;;4.40;99.90;;;;;;5155924;27;20442;-69
2022/03/24 06:11:18;;;;;;;;;;;3.60;99.90;;;;;;5155915;27;20310;-72
2022/03/24 06:13:45;;;;;;;;;;;3.60;99.90;;;;;;5156053;27;19931;-69
2022/03/24 06:16:13;;;;;;;;;;;3.60;99.90;;;;;;5155904;27;19923;-69
2022/03/24 06:18:39;;;;;;;;;;;4.50;99.90;;;;;;5137357;27;20342;-70
2022/03/24 06:21:05;;;;;;;;;;;2.40;99.90;;;;;;5155588;27;19923;-69
2022/03/24 06:23:30;;;;;;;;;;;4.30;99.90;;;;;;5155725;27;20282;-68
2022/03/24 06:25:56;;;;;;;;;;;4.40;99.90;;;;;;5137102;27;19923;-68
2022/03/24 06:28:22;;;;;;;;;;;5.10;99.90;;;;;;5155903;27;19930;-69
2022/03/24 06:30:48;;;;;;;;;;;2.20;99.90;;;;;;5155792;27;19930;-69
2022/03/24 06:33:16;;;;;;;;;;;3.90;99.90;;;;;;5137438;27;19923;-71
2022/03/24 06:35:43;;;;;;;;;;;4.80;99.90;;;;;;5136978;27;19927;-69
2022/03/24 06:38:08;;;;;;;;;;;4.00;99.90;;;;;;5137387;27;20312;-71
2022/03/24 06:40:34;;;;;;;;;;;4.00;99.90;;;;;;5155270;27;19923;-69
2022/03/24 06:42:59;;;;;;;;;;;4.40;99.90;;;;;;5137203;27;20460;-68
2022/03/24 06:45:25;;;;;;;;;;;4.10;99.90;;;;;;5137348;27;19922;-69
2022/03/24 06:47:51;;;;;;;;;;;4.20;99.90;;;;;;5155464;27;20340;-69
2022/03/24 06:50:16;;;;;;;;;;;5.20;99.90;;;;;;5137194;27;19923;-71
2022/03/24 06:52:43;;;;;;;;;;;4.30;99.90;;;;;;5136969;27;19949;-71
2022/03/24 06:55:09;;;;;;;;;;;5.20;99.90;;;;;;5155292;27;19927;-69
2022/03/24 06:57:36;;;;;;;;;;;4.90;99.90;;;;;;5136451;27;20289;-72
2022/03/24 07:00:03;;;;;;;;;;;4.90;99.90;;;;;;5155517;27;20263;-69
2022/03/24 07:02:29;;;;;;;;;;;4.60;99.90;;;;;;5154984;27;20399;-69
2022/03/24 07:04:54;;;;;;;;;;;5.00;99.90;;;;;;5155145;27;19930;-72
2022/03/24 07:07:20;;;;;;;;;;;4.80;99.90;;;;;;5137307;27;20005;-69
2022/03/24 07:09:45;;;;;;;;;;;4.90;99.90;;;;;;5159509;27;19923;-70
2022/03/24 07:12:11;;;;;;;;;;;5.80;99.90;;;;;;5159346;27;19985;-72
2022/03/24 07:14:37;;;;;;;;;;;5.10;99.90;;;;;;5141361;27;19923;-70
2022/03/24 07:17:04;;;;;;;;;;;5.20;99.90;;;;;;5159415;27;19923;-68
2022/03/24 07:19:38;;;;;;;;;;;5.20;99.90;;;;;;5158145;27;20033;-70
2022/03/24 07:22:04;;;;;;;;;;;5.30;99.90;;;;;;5159249;27;20259;-72
2022/03/24 07:24:30;;;;;;;;;;;5.50;99.90;;;;;;5159034;27;20033;-70
2022/03/24 07:26:55;;;;;;;;;;;5.60;99.90;;;;;;5159027;27;19937;-71
2022/03/24 07:29:21;;;;;;;;;;;5.70;99.90;;;;;;5140767;27;19923;-71
2022/03/24 07:31:47;;;;;;;;;;;5.80;99.90;;;;;;5158888;27;20389;-69
2022/03/24 07:34:12;;;;;;;;;;;5.90;99.90;;;;;;5158984;27;19923;-71
2022/03/24 07:36:40;;;;;;;;;;;6.00;99.90;;;;;;5158748;27;20059;-70
2022/03/24 07:39:06;;;;;;;;;;;6.10;99.90;;;;;;5158845;27;19923;-70
2022/03/24 07:41:32;;;;;;;;;;;6.50;99.90;;;;;;5140140;27;19923;-69
2022/03/24 07:43:58;;;;;;;;;;;6.90;99.90;;;;;;5158893;27;19923;-69
2022/03/24 07:46:24;;;;;;;;;;;6.40;99.90;;;;;;5158863;27;19923;-69
2022/03/24 07:48:49;;;;;;;;;;;6.80;99.90;;;;;;5158770;27;19923;-73
2022/03/24 07:51:15;;;;;;;;;;;6.70;99.90;;;;;;5139807;27;19929;-71
2022/03/24 07:53:47;;;;;;;;;;;6.80;99.90;;;;;;5158394;27;19923;-70
2022/03/24 07:56:13;;;;;;;;;;;6.90;99.90;;;;;;5139251;27;19923;-70
2022/03/24 07:58:39;;;;;;;;;;;8.20;99.90;;;;;;5139615;27;20362;-70
2022/03/24 08:01:05;;;;;;;;;;;7.30;99.90;;;;;;5139339;27;19924;-70
2022/03/24 08:03:31;;;;;;;;;;;7.20;99.90;;;;;;5139741;27;19923;-72
2022/03/24 08:05:57;;;;;;;;;;;7.30;99.90;;;;;;5139616;27;19929;-69
2022/03/24 08:08:23;;;;;;;;;;;7.40;99.90;;;;;;5158093;27;19923;-72
2022/03/24 08:10:50;;;;;;;;;;;7.50;99.90;;;;;;5158023;27;19927;-69
2022/03/24 08:13:16;;;;;;;;;;;7.50;99.90;;;;;;5157895;27;20010;-68
2022/03/24 08:15:42;;;;;;;;;;;7.60;99.90;;;;;;5158041;27;19923;-71
2022/03/24 08:18:09;;;;;;;;;;;7.70;99.90;;;;;;5158025;27;20472;-70
2022/03/24 08:20:35;;;;;;;;;;;8.10;99.90;;;;;;5156898;27;19923;-69
2022/03/24 08:23:02;;;;;;;;;;;7.90;99.90;;;;;;5139568;27;19923;-70
2022/03/24 08:25:28;;;;;;;;;;;8.00;99.90;;;;;;5157730;27;19966;-70
2022/03/24 08:27:54;;;;;;;;;;;8.10;99.90;;;;;;5157673;27;19959;-70
2022/03/24 08:30:20;;;;;;;;;;;8.20;99.90;;;;;;5157810;27;19923;-70
2022/03/24 08:32:45;;;;;;;;;;;8.30;99.90;;;;;;5139100;27;19942;-70
2022/03/24 08:35:11;;;;;;;;;;;8.40;99.90;;;;;;5157487;27;19978;-72
2022/03/24 08:37:37;;;;;;;;;;;8.50;99.90;;;;;;5157343;27;20339;-70
2022/03/24 08:40:03;;;;;;;;;;;9.20;99.90;;;;;;5157499;27;19964;-70
2022/03/24 08:42:29;;;;;;;;;;;8.70;99.90;;;;;;5157568;27;19923;-68
2022/03/24 08:44:55;;;;;;;;;;;8.80;99.90;;;;;;5157552;27;19930;-70
2022/03/24 08:47:20;;;;;;;;;;;9.00;99.90;;;;;;5157354;27;20494;-70
2022/03/24 08:49:58;;;;;;;;;;;9.50;99.90;;;;;;5157261;27;19937;-72
2022/03/24 08:52:25;;;;;;;;;;;9.10;99.90;;;;;;5157419;27;19930;-70
2022/03/24 08:54:51;;;;;;;;;;;9.20;99.90;;;;;;5157240;27;19962;-71
2022/03/24 08:57:16;;;;;;;;;;;9.30;99.90;;;;;;5138550;27;20014;-70
2022/03/24 08:59:42;;;;;;;;;;;9.40;99.90;;;;;;5157296;27;20384;-71
2022/03/24 09:02:08;;;;;;;;;;;9.50;99.90;;;;;;5157122;27;19923;-70
2022/03/24 09:04:33;;;;;;;;;;;9.60;99.90;;;;;;5157136;27;19933;-72
2022/03/24 09:07:00;;;;;;;;;;;9.70;99.90;;;;;;5138723;27;19948;-70
2022/03/24 09:09:26;;;;;;;;;;;10.70;99.90;;;;;;5156976;27;19934;-70
2022/03/24 09:11:51;;;;;;;;;;;10.10;99.90;;;;;;5156780;27;19994;-73
2022/03/24 09:14:17;;;;;;;;;;;8.70;99.90;;;;;;5157049;27;19923;-73
2022/03/24 09:16:43;;;;;;;;;;;10.20;99.90;;;;;;5156877;27;19930;-70
2022/03/24 09:19:10;;;;;;;;;;;10.30;99.90;;;;;;5156869;27;20408;-73
2022/03/24 09:21:35;;;;;;;;;;;10.40;99.90;;;;;;5137638;27;19927;-70
2022/03/24 09:24:01;;;;;;;;;;;10.60;99.90;;;;;;5156613;27;19991;-72
2022/03/24 09:26:27;;;;;;;;;;;10.80;99.90;;;;;;5156583;27;19923;-71
2022/03/24 09:28:52;;;;;;;;;;;10.90;99.90;;;;;;5156450;27;19929;-71
2022/03/24 09:31:18;;;;;;;;;;;11.00;99.90;;;;;;5155380;27;19927;-72
2022/03/24 09:33:44;;;;;;;;;;;11.10;99.90;;;;;;5156731;27;19992;-71
2022/03/24 09:36:11;;;;;;;;;;;11.30;99.90;;;;;;5137929;27;19923;-71
2022/03/24 09:38:36;;;;;;;;;;;11.40;99.90;;;;;;5156472;27;19970;-70
2022/03/24 09:41:02;;;;;;;;;;;11.50;99.90;;;;;;5156242;27;19923;-71
2022/03/24 09:43:27;;;;;;;;;;;11.70;99.90;;;;;;5156113;27;19967;-71
2022/03/24 09:45:53;;;;;;;;;;;11.90;99.90;;;;;;5138134;27;19976;-70
2022/03/24 09:48:19;;;;;;;;;;;11.60;99.90;;;;;;5156366;27;19966;-71
2022/03/24 09:50:45;;;;;;;;;;;12.10;99.90;;;;;;5155699;27;20013;-71
2022/03/24 09:53:17;;;;;;;;;;;12.30;99.90;;;;;;5124439;27;1988827;-70
2022/03/24 09:55:43;;;;;;;;;;;11.40;99.90;;;;;;5175352;27;19923;-70
2022/03/24 09:58:09;;;;;;;;;;;12.50;99.90;;;;;;5175706;27;19990;-69
2022/03/24 10:00:35;;;;;;;;;;;12.60;99.90;;;;;;5194711;27;19922;-70
2022/03/24 10:03:07;;;;;;;;;;;12.80;99.90;;;;;;5194580;27;19923;-70
2022/03/24 10:05:33;;;;;;;;;;;12.90;99.90;;;;;;5194347;27;19923;-70
2022/03/24 10:08:02;;;;;;;;;;;13.10;99.90;;;;;;5194272;27;20041;-69
2022/03/24 10:10:30;;;;;;;;;;;13.20;99.90;;;;;;5194239;27;20342;-71
2022/03/24 10:12:56;;;;;;;;;;;13.20;99.90;;;;;;5194085;27;19923;-72
2022/03/24 10:15:21;;;;;;;;;;;13.30;99.90;;;;;;5194289;27;19930;-70
2022/03/24 10:17:54;;;;;;;;;;;13.40;99.90;;;;;;5194311;27;19922;-70
2022/03/24 10:20:23;;;;;;;;;;;13.50;99.90;;;;;;5194049;27;19927;-69
2022/03/24 10:23:00;;;;;;;;;;;13.50;99.90;;;;;;5175270;27;20013;-72
2022/03/24 10:25:28;;;;;;;;;;;13.60;99.90;;;;;;5175380;27;19923;-71
2022/03/24 10:28:04;;;;;;;;;;;13.70;99.90;;;;;;5175685;27;19922;-70
2022/03/24 10:30:47;;;;;;;;;;;13.80;99.30;;;;;;5175614;27;19930;-71
2022/03/24 10:33:31;;;;;;;;;;;13.90;99.90;;;;;;5174966;27;19923;-71
2022/03/24 10:36:26;;;;;;;;;;;14.00;99.10;;;;;;5193572;27;19922;-70
2022/03/24 10:39:04;;;;;;;;;;;14.10;99.80;;;;;;5071110;28;20279;-72
2022/03/24 10:41:31;;;;;;;;;;;14.20;99.70;;;;;;5088230;28;19929;-71
2022/03/24 10:43:58;;;;;;;;;;;14.30;92.00;;;;;;5071460;28;19931;-70
2022/03/24 10:46:25;;;;;;;;;;;14.40;91.40;;;;;;5071322;28;19925;-71
2022/03/24 10:48:51;;;;;;;;;;;14.50;80.90;;;;;;5070904;28;20068;-70
2022/03/24 10:51:35;;;;;;;;;;;14.50;75.50;;;;;;5087510;28;19924;-69
2022/03/24 10:54:13;;;;;;;;;;;14.70;80.10;;;;;;5087916;28;19928;-70
2022/03/24 10:56:43;;;;;;;;;;;14.80;75.60;;;;;;5087870;28;19924;-70
2022/03/24 10:59:09;;;;;;;;;;;14.90;81.50;;;;;;5087867;28;19931;-70
2022/03/24 11:01:34;;;;;;;;;;;15.00;76.10;;;;;;5087694;28;19925;-70
2022/03/24 11:04:00;;;;;;;;;;;15.10;72.80;;;;;;5077671;28;20295;-70
2022/03/24 11:06:29;;;;;;;;;;;15.20;71.50;;;;;;5074092;28;19924;-70
2022/03/24 11:08:59;;;;;;;;;;;15.30;75.00;;;;;;5074047;28;19924;-70
2022/03/24 11:11:25;;;;;;;;;;;15.40;72.50;;;;;;5073904;28;19932;-70
2022/03/24 11:13:52;;;;;;;;;;;15.60;74.80;;;;;;5055965;28;19968;-71
2022/03/24 11:16:19;;;;;;;;;;;15.50;73.80;;;;;;5172154;27;19923;-72
2022/03/24 11:18:46;;;;;;;;;;;15.60;78.70;;;;;;5160290;27;19923;-70
2022/03/24 11:21:13;;;;;;;;;;;15.60;70.00;;;;;;5160159;27;20018;-70
2022/03/24 11:23:39;;;;;;;;;;;15.70;65.70;;;;;;5178715;27;19927;-72
2022/03/24 11:26:06;;;;;;;;;;;15.80;65.70;;;;;;5178794;27;19923;-70
2022/03/24 11:28:33;;;;;;;;;;;15.80;67.70;;;;;;5178743;27;19986;-70
2022/03/24 11:31:02;;;;;;;;;;;15.80;65.70;;;;;;5158613;27;19922;-71
2022/03/24 11:33:28;;;;;;;;;;;15.90;68.60;;;;;;5178755;27;19926;-72
2022/03/24 11:35:53;;;;;;;;;;;16.00;66.20;;;;;;5178679;27;19974;-70
2022/03/24 11:38:19;;;;;;;;;;;16.10;65.70;;;;;;5177297;27;19927;-70
2022/03/24 11:40:46;;;;;;;;;;;16.10;54.90;;;;;;5160182;27;19922;-70
2022/03/24 11:43:16;;;;;;;;;;;16.20;61.10;;;;;;5159946;27;19923;-71
2022/03/24 11:46:02;;;;;;;;;;;16.20;61.20;;;;;;5178384;27;19976;-70
2022/03/24 11:48:32;;;;;;;;;;;16.20;61.80;;;;;;5178341;27;19929;-70
2022/03/24 11:51:03;;;;;;;;;;;16.40;59.40;;;;;;5178192;27;20022;-70
2022/03/24 11:53:28;;;;;;;;;;;16.40;58.00;;;;;;5178020;27;19966;-70
2022/03/24 11:56:03;;;;;;;;;;;16.40;58.40;;;;;;5178412;27;20438;-73
2022/03/24 11:58:30;;;;;;;;;;;16.50;60.00;;;;;;5178272;27;19936;-69
2022/03/24 12:00:56;;;;;;;;;;;16.40;57.90;;;;;;5178241;27;19974;-70
2022/03/24 12:03:37;;;;;;;;;;;16.50;58.70;;;;;;5178143;27;19923;-69
2022/03/24 12:06:05;;;;;;;;;;;16.60;58.80;;;;;;5177862;27;20013;-70
2022/03/24 12:08:42;;;;;;;;;;;16.60;56.60;;;;;;5178069;27;20017;-70
2022/03/24 12:11:26;;;;;;;;;;;16.60;59.20;;;;;;5177960;27;19946;-70
2022/03/24 12:13:55;;;;;;;;;;;16.50;58.10;;;;;;5159085;27;20366;-72
2022/03/24 12:16:23;;;;;;;;;;;16.60;57.80;;;;;;5176951;27;20395;-71
2022/03/24 12:18:49;;;;;;;;;;;16.60;56.80;;;;;;5177571;27;20339;-70
2022/03/24 12:21:21;;;;;;;;;;;16.60;57.70;;;;;;5152201;27;19930;-72
2022/03/24 12:24:08;;;;;;;;;;;16.60;57.80;;;;;;5138169;27;20010;-69
2022/03/24 12:26:47;;;;;;;;;;;16.60;57.30;;;;;;5164251;27;20339;-71
2022/03/24 12:29:12;;;;;;;;;;;16.70;57.20;;;;;;5156678;27;19970;-71
2022/03/24 12:31:56;;;;;;;;;;;16.70;56.70;;;;;;5156773;27;19997;-73
2022/03/24 12:34:22;;;;;;;;;;;16.70;56.00;;;;;;5156675;27;19968;-71
2022/03/24 12:36:48;;;;;;;;;;;16.80;56.00;;;;;;5156398;27;20313;-72
2022/03/24 12:39:52;;;;;;;;;;;16.80;56.10;;;;;;5156533;27;19923;-71
2022/03/24 12:42:21;;;;;;;;;;;16.70;52.90;;;;;;5054904;28;19932;-72
2022/03/24 12:44:53;;;;;;;;;;;16.70;55.30;;;;;;5061530;28;20036;-70
2022/03/24 12:47:30;;;;;;;;;;;16.70;53.70;;;;;;5035656;28;20015;-71
2022/03/24 12:49:57;;;;;;;;;;;16.70;54.00;;;;;;5052148;28;19924;-71
2022/03/24 12:52:26;;;;;;;;;;;16.80;54.30;;;;;;5051684;28;19924;-72
2022/03/24 12:54:53;;;;;;;;;;;16.80;54.80;;;;;;5052161;28;20342;-70
2022/03/24 12:57:19;;;;;;;;;;;16.80;53.30;;;;;;5052075;28;20307;-70
2022/03/24 12:59:45;;;;;;;;;;;16.80;53.00;;;;;;5051916;28;19975;-71
2022/03/24 13:02:11;;;;;;;;;;;16.80;53.40;;;;;;5051998;28;19975;-71
2022/03/24 13:04:36;;;;;;;;;;;16.80;53.90;;;;;;5035655;28;19947;-70
2022/03/24 13:07:02;;;;;;;;;;;16.80;50.40;;;;;;5051721;28;19925;-72
2022/03/24 13:09:28;;;;;;;;;;;16.80;50.50;;;;;;5051966;28;19932;-71
2022/03/24 13:12:02;;;;;;;;;;;16.90;49.90;;;;;;5038201;27;19924;-70
2022/03/24 13:14:30;;;;;;;;;;;16.80;50.60;;;;;;5137664;27;19923;-72
2022/03/24 13:16:59;;;;;;;;;;;16.80;51.40;;;;;;5155795;27;19923;-71
2022/03/24 13:19:25;;;;;;;;;;;16.80;51.60;;;;;;5137107;27;19948;-72
2022/03/24 13:21:50;;;;;;;;;;;16.80;50.40;;;;;;5155586;27;19922;-71
2022/03/24 13:24:24;;;;;;;;;;;16.80;49.20;;;;;;5155590;27;19927;-72
2022/03/24 13:27:00;;;;;;;;;;;16.80;51.30;;;;;;5155523;27;20309;-71
2022/03/24 13:29:39;;;;;;;;;;;16.80;48.00;;;;;;5155573;27;19947;-71
2022/03/24 13:32:15;;;;;;;;;;;16.90;50.30;;;;;;5155437;27;20370;-71
2022/03/24 13:34:48;;;;;;;;;;;16.90;49.70;;;;;;5155609;27;19927;-71
2022/03/24 13:37:14;;;;;;;;;;;16.90;48.70;;;;;;5155694;27;19923;-72
2022/03/24 13:39:44;;;;;;;;;;;16.90;49.40;;;;;;5155353;27;19934;-71
2022/03/24 13:42:10;;;;;;;;;;;16.90;50.20;;;;;;5155634;27;20015;-71
2022/03/24 13:44:35;;;;;;;;;;;16.90;47.00;;;;;;5155356;27;19968;-73
2022/03/24 13:47:02;;;;;;;;;;;16.90;50.30;;;;;;5136659;27;19923;-73
2022/03/24 13:49:28;;;;;;;;;;;16.90;55.40;;;;;;5155393;27;19927;-70
2022/03/24 13:51:54;;;;;;;;;;;17.00;57.60;;;;;;5154870;27;20412;-69
2022/03/24 13:54:20;;;;;;;;;;;16.90;56.50;;;;;;5164824;27;19927;-70
2022/03/24 13:56:47;;;;;;;;;;;16.90;57.30;;;;;;5169310;27;19923;-70
2022/03/24 13:59:15;;;;;;;;;;;16.90;55.20;;;;;;5173267;27;19923;-72
2022/03/24 14:01:40;;;;;;;;;;;16.90;57.50;;;;;;5153829;27;19930;-70
2022/03/24 14:04:18;;;;;;;;;;;16.90;57.70;;;;;;5176215;27;20273;-71
2022/03/24 14:07:03;;;;;;;;;;;16.90;56.80;;;;;;5176093;27;19922;-71
2022/03/24 14:09:29;;;;;;;;;;;16.80;58.10;;;;;;5176030;27;19929;-71
2022/03/24 14:12:07;;;;;;;;;;;16.90;54.30;;;;;;5175849;27;19929;-71
2022/03/24 14:14:33;;;;;;;;;;;16.80;55.70;;;;;;5176092;27;19991;-71
2022/03/24 14:16:59;;;;;;;;;;;16.80;55.40;;;;;;5157794;27;20362;-71
2022/03/24 14:19:28;;;;;;;;;;;16.20;54.10;;;;;;5176028;27;19922;-71
2022/03/24 14:21:56;;;;;;;;;;;16.80;56.10;;;;;;5176143;27;19929;-72
2022/03/24 14:24:31;;;;;;;;;;;16.80;55.90;;;;;;5175833;27;20285;-70
2022/03/24 14:26:58;;;;;;;;;;;16.80;55.90;;;;;;5175715;27;20377;-72
2022/03/24 14:29:24;;;;;;;;;;;16.80;55.70;;;;;;5175990;27;19922;-73